AWQ2457 WIII-WIII
Flight info
| Callsign | AWQ2457 |
|---|---|
| Flight time | 1h 23m |
| Altitude | 3000 |
| Route | WIII/WIHH/WIII |
| Aircraft | A320/M-SDE3FGHIRWY/LB1 |
Departure
| Time | 2026-05-06 06:53 |
|---|---|
| Airport | Soekarno-Hatta International Airport (WIII) |
Arrival
| Time | 2026-05-06 08:16 |
|---|---|
| Airport | Soekarno-Hatta International Airport (WIII) |
| Time | Latitude | Longitude | Altitude | Speed | Heading |
|---|---|---|---|---|---|
| 2026-05-06 06:24 | -6.12077 | 106.65405 | 38 ft | 0 kts | 174° |
| 2026-05-06 06:33 | -6.12061 | 106.65403 | 36 ft | 4 kts | 174° |
| 2026-05-06 06:34 | -6.12034 | 106.65400 | 37 ft | 4 kts | 174° |
| 2026-05-06 06:34 | -6.12008 | 106.65398 | 37 ft | 4 kts | 176° |
| 2026-05-06 06:34 | -6.11981 | 106.65399 | 36 ft | 4 kts | 198° |
| 2026-05-06 06:34 | -6.11959 | 106.65412 | 37 ft | 4 kts | 239° |
| 2026-05-06 06:35 | -6.11949 | 106.65434 | 38 ft | 4 kts | 248° |
| 2026-05-06 06:35 | -6.11939 | 106.65459 | 35 ft | 4 kts | 248° |
| 2026-05-06 06:35 | -6.11929 | 106.65484 | 37 ft | 4 kts | 248° |
| 2026-05-06 06:35 | -6.11918 | 106.65509 | 36 ft | 4 kts | 248° |
| 2026-05-06 06:36 | -6.11912 | 106.65525 | 37 ft | 0 kts | 248° |
| 2026-05-06 06:48 | -6.11939 | 106.65458 | 38 ft | 14 kts | 248° |
| 2026-05-06 06:48 | -6.11954 | 106.65367 | 38 ft | 13 kts | 288° |
| 2026-05-06 06:48 | -6.11898 | 106.65291 | 38 ft | 14 kts | 308° |
| 2026-05-06 06:48 | -6.11809 | 106.65230 | 37 ft | 17 kts | 338° |
| 2026-05-06 06:49 | -6.11785 | 106.65169 | 39 ft | 7 kts | 245° |
| 2026-05-06 06:49 | -6.11805 | 106.65120 | 39 ft | 8 kts | 249° |
| 2026-05-06 06:49 | -6.11826 | 106.65064 | 39 ft | 13 kts | 250° |
| 2026-05-06 06:49 | -6.11870 | 106.64950 | 39 ft | 18 kts | 248° |
| 2026-05-06 06:50 | -6.11918 | 106.64830 | 39 ft | 22 kts | 249° |
| 2026-05-06 06:50 | -6.11993 | 106.64642 | 38 ft | 30 kts | 246° |
| 2026-05-06 06:50 | -6.12075 | 106.64437 | 38 ft | 34 kts | 249° |
| 2026-05-06 06:50 | -6.12154 | 106.64238 | 39 ft | 27 kts | 250° |
| 2026-05-06 06:51 | -6.12213 | 106.64080 | 39 ft | 19 kts | 246° |
| 2026-05-06 06:51 | -6.12260 | 106.63961 | 40 ft | 18 kts | 265° |
| 2026-05-06 06:51 | -6.12226 | 106.63901 | 41 ft | 0 kts | 328° |
| 2026-05-06 06:52 | -6.12204 | 106.63889 | 40 ft | 12 kts | 342° |
| 2026-05-06 06:52 | -6.12114 | 106.63924 | 41 ft | 17 kts | 37° |
| 2026-05-06 06:52 | -6.12021 | 106.64085 | 40 ft | 59 kts | 68° |
| 2026-05-06 06:52 | -6.11704 | 106.64833 | 88 ft | 163 kts | 63° |
| 2026-05-06 06:53 | -6.11187 | 106.66072 | 520 ft | 215 kts | 68° |
| 2026-05-06 06:53 | -6.10598 | 106.67592 | 893 ft | 249 kts | 68° |
| 2026-05-06 06:53 | -6.10098 | 106.69233 | 1133 ft | 244 kts | 88° |
| 2026-05-06 06:53 | -6.10569 | 106.70861 | 1237 ft | 248 kts | 123° |
| 2026-05-06 06:54 | -6.11930 | 106.71907 | 1258 ft | 252 kts | 155° |
| 2026-05-06 06:54 | -6.13551 | 106.72589 | 1153 ft | 252 kts | 155° |
| 2026-05-06 06:54 | -6.15164 | 106.73269 | 1171 ft | 253 kts | 155° |
| 2026-05-06 06:54 | -6.16789 | 106.73960 | 1199 ft | 254 kts | 155° |
| 2026-05-06 06:55 | -6.18403 | 106.74669 | 1156 ft | 253 kts | 153° |
| 2026-05-06 06:55 | -6.19960 | 106.75471 | 1258 ft | 251 kts | 150° |
| 2026-05-06 06:55 | -6.21528 | 106.76307 | 1391 ft | 253 kts | 150° |
| 2026-05-06 06:55 | -6.23026 | 106.77104 | 1421 ft | 237 kts | 151° |
| 2026-05-06 06:56 | -6.24259 | 106.78133 | 1468 ft | 230 kts | 125° |
| 2026-05-06 06:56 | -6.25025 | 106.79509 | 1485 ft | 228 kts | 109° |
| 2026-05-06 06:56 | -6.25436 | 106.81047 | 1444 ft | 227 kts | 97° |
| 2026-05-06 06:56 | -6.25333 | 106.82603 | 1437 ft | 224 kts | 71° |
| 2026-05-06 06:57 | -6.24759 | 106.84058 | 1436 ft | 223 kts | 66° |
| 2026-05-06 06:57 | -6.24136 | 106.85480 | 1430 ft | 223 kts | 65° |
| 2026-05-06 06:57 | -6.23400 | 106.86846 | 1435 ft | 222 kts | 60° |
| 2026-05-06 06:57 | -6.22599 | 106.88187 | 1433 ft | 225 kts | 59° |
| 2026-05-06 06:58 | -6.21781 | 106.89531 | 1434 ft | 225 kts | 58° |
| 2026-05-06 06:58 | -6.20967 | 106.90871 | 1434 ft | 224 kts | 58° |
| 2026-05-06 06:58 | -6.20155 | 106.92203 | 1426 ft | 223 kts | 58° |
| 2026-05-06 06:58 | -6.19349 | 106.93538 | 1437 ft | 224 kts | 58° |
| 2026-05-06 06:59 | -6.18542 | 106.94875 | 1432 ft | 219 kts | 59° |
| 2026-05-06 06:59 | -6.17773 | 106.96135 | 1427 ft | 205 kts | 59° |
| 2026-05-06 06:59 | -6.17052 | 106.97300 | 1435 ft | 191 kts | 58° |
| 2026-05-06 06:59 | -6.16487 | 106.98457 | 1427 ft | 182 kts | 77° |
| 2026-05-06 07:00 | -6.16522 | 106.99701 | 1428 ft | 180 kts | 105° |
| 2026-05-06 07:00 | -6.17206 | 107.00753 | 1433 ft | 184 kts | 138° |
| 2026-05-06 07:00 | -6.18376 | 107.01288 | 1424 ft | 189 kts | 171° |
| 2026-05-06 07:00 | -6.19682 | 107.01087 | 1426 ft | 194 kts | 206° |
| 2026-05-06 07:01 | -6.20774 | 107.00263 | 1442 ft | 192 kts | 219° |
| 2026-05-06 07:01 | -6.21765 | 106.99396 | 1427 ft | 184 kts | 224° |
| 2026-05-06 07:01 | -6.22425 | 106.98353 | 1465 ft | 171 kts | 245° |
| 2026-05-06 07:01 | -6.22900 | 106.97314 | 1452 ft | 154 kts | 247° |
| 2026-05-06 07:02 | -6.23325 | 106.96389 | 1376 ft | 143 kts | 246° |
| 2026-05-06 07:02 | -6.23732 | 106.95503 | 1228 ft | 138 kts | 247° |
| 2026-05-06 07:02 | -6.24132 | 106.94629 | 1072 ft | 137 kts | 246° |
| 2026-05-06 07:02 | -6.24529 | 106.93765 | 901 ft | 136 kts | 248° |
| 2026-05-06 07:03 | -6.24923 | 106.92903 | 735 ft | 134 kts | 246° |
| 2026-05-06 07:03 | -6.25315 | 106.92048 | 558 ft | 135 kts | 247° |
| 2026-05-06 07:03 | -6.25704 | 106.91194 | 362 ft | 134 kts | 246° |
| 2026-05-06 07:03 | -6.26092 | 106.90353 | 166 ft | 130 kts | 247° |
| 2026-05-06 07:04 | -6.26463 | 106.89544 | 94 ft | 116 kts | 245° |
| 2026-05-06 07:04 | -6.26754 | 106.88905 | 92 ft | 93 kts | 245° |
| 2026-05-06 07:04 | -6.27128 | 106.88079 | 118 ft | 176 kts | 248° |
| 2026-05-06 07:04 | -6.27694 | 106.86821 | 874 ft | 213 kts | 247° |
| 2026-05-06 07:05 | -6.28360 | 106.85336 | 1479 ft | 257 kts | 243° |
| 2026-05-06 07:05 | -6.29572 | 106.84033 | 1497 ft | 259 kts | 210° |
| 2026-05-06 07:05 | -6.31266 | 106.83549 | 1488 ft | 258 kts | 179° |
| 2026-05-06 07:05 | -6.32974 | 106.83963 | 1439 ft | 253 kts | 148° |
| 2026-05-06 07:06 | -6.34212 | 106.85158 | 1436 ft | 248 kts | 117° |
| 2026-05-06 07:06 | -6.34679 | 106.86798 | 1430 ft | 246 kts | 92° |
| 2026-05-06 07:06 | -6.34611 | 106.88510 | 1428 ft | 247 kts | 83° |
| 2026-05-06 07:06 | -6.34325 | 106.90247 | 1429 ft | 255 kts | 77° |
| 2026-05-06 07:07 | -6.33973 | 106.92005 | 1429 ft | 256 kts | 77° |
| 2026-05-06 07:07 | -6.33613 | 106.93756 | 1431 ft | 255 kts | 77° |
| 2026-05-06 07:07 | -6.33250 | 106.95500 | 1428 ft | 255 kts | 78° |
| 2026-05-06 07:07 | -6.32791 | 106.97200 | 1423 ft | 243 kts | 73° |
| 2026-05-06 07:08 | -6.32297 | 106.98760 | 1424 ft | 227 kts | 72° |
| 2026-05-06 07:08 | -6.31824 | 107.00210 | 1428 ft | 210 kts | 71° |
| 2026-05-06 07:08 | -6.31219 | 107.01475 | 1428 ft | 192 kts | 50° |
| 2026-05-06 07:08 | -6.30214 | 107.02282 | 1419 ft | 181 kts | 25° |
| 2026-05-06 07:09 | -6.29008 | 107.02543 | 1411 ft | 177 kts | 359° |
| 2026-05-06 07:09 | -6.27817 | 107.02251 | 1438 ft | 177 kts | 335° |
| 2026-05-06 07:09 | -6.26731 | 107.01654 | 1422 ft | 178 kts | 334° |
| 2026-05-06 07:09 | -6.25657 | 107.01064 | 1405 ft | 177 kts | 333° |
| 2026-05-06 07:10 | -6.24565 | 107.00465 | 1404 ft | 179 kts | 332° |
| 2026-05-06 07:10 | -6.23529 | 106.99787 | 1406 ft | 182 kts | 317° |
| 2026-05-06 07:10 | -6.22882 | 106.98694 | 1404 ft | 185 kts | 287° |
| 2026-05-06 07:10 | -6.22880 | 106.97416 | 1410 ft | 187 kts | 255° |
| 2026-05-06 07:11 | -6.23388 | 106.96215 | 1314 ft | 183 kts | 245° |
| 2026-05-06 07:11 | -6.23902 | 106.95117 | 1119 ft | 163 kts | 245° |
| 2026-05-06 07:11 | -6.24355 | 106.94139 | 970 ft | 149 kts | 245° |
| 2026-05-06 07:11 | -6.24776 | 106.93224 | 799 ft | 140 kts | 248° |
| 2026-05-06 07:12 | -6.25178 | 106.92346 | 614 ft | 137 kts | 249° |
| 2026-05-06 07:12 | -6.25574 | 106.91484 | 429 ft | 135 kts | 248° |
| 2026-05-06 07:12 | -6.25962 | 106.90636 | 243 ft | 133 kts | 246° |
| 2026-05-06 07:12 | -6.26348 | 106.89798 | 100 ft | 126 kts | 248° |
| 2026-05-06 07:13 | -6.26671 | 106.89081 | 92 ft | 99 kts | 246° |
| 2026-05-06 07:13 | -6.26952 | 106.88477 | 91 ft | 110 kts | 245° |
| 2026-05-06 07:13 | -6.27410 | 106.87476 | 399 ft | 183 kts | 246° |
| 2026-05-06 07:13 | -6.28004 | 106.86205 | 1211 ft | 226 kts | 245° |
| 2026-05-06 07:14 | -6.28835 | 106.84706 | 1377 ft | 262 kts | 230° |
| 2026-05-06 07:14 | -6.30304 | 106.83607 | 1407 ft | 267 kts | 202° |
| 2026-05-06 07:14 | -6.32120 | 106.83263 | 1406 ft | 268 kts | 182° |
| 2026-05-06 07:14 | -6.33944 | 106.83494 | 1404 ft | 264 kts | 156° |
| 2026-05-06 07:15 | -6.35415 | 106.84551 | 1407 ft | 260 kts | 127° |
| 2026-05-06 07:15 | -6.36170 | 106.86167 | 1402 ft | 257 kts | 98° |
| 2026-05-06 07:15 | -6.36051 | 106.87930 | 1402 ft | 254 kts | 74° |
| 2026-05-06 07:15 | -6.35527 | 106.89638 | 1398 ft | 255 kts | 71° |
| 2026-05-06 07:16 | -6.34959 | 106.91338 | 1403 ft | 257 kts | 71° |
| 2026-05-06 07:16 | -6.34330 | 106.93198 | 1403 ft | 315 kts | 70° |
| 2026-05-06 07:16 | -6.33552 | 106.95453 | 1395 ft | 354 kts | 70° |
| 2026-05-06 07:16 | -6.32699 | 106.97764 | 1401 ft | 352 kts | 67° |
| 2026-05-06 07:17 | -6.31704 | 107.00012 | 1400 ft | 353 kts | 65° |
| 2026-05-06 07:17 | -6.30692 | 107.02252 | 1406 ft | 348 kts | 65° |
| 2026-05-06 07:17 | -6.29768 | 107.04309 | 1409 ft | 302 kts | 65° |
| 2026-05-06 07:17 | -6.28960 | 107.06117 | 1401 ft | 259 kts | 63° |
| 2026-05-06 07:18 | -6.28015 | 107.07495 | 1401 ft | 224 kts | 45° |
| 2026-05-06 07:18 | -6.26843 | 107.08350 | 1406 ft | 200 kts | 27° |
| 2026-05-06 07:18 | -6.25586 | 107.08749 | 1409 ft | 182 kts | 9° |
| 2026-05-06 07:18 | -6.24385 | 107.08759 | 1416 ft | 162 kts | 354° |
| 2026-05-06 07:19 | -6.23286 | 107.08468 | 1414 ft | 172 kts | 341° |
| 2026-05-06 07:19 | -6.22230 | 107.07845 | 1409 ft | 179 kts | 323° |
| 2026-05-06 07:19 | -6.21378 | 107.06920 | 1407 ft | 182 kts | 307° |
| 2026-05-06 07:19 | -6.20818 | 107.05777 | 1409 ft | 184 kts | 290° |
| 2026-05-06 07:20 | -6.20610 | 107.04504 | 1404 ft | 186 kts | 273° |
| 2026-05-06 07:20 | -6.20783 | 107.03204 | 1412 ft | 190 kts | 255° |
| 2026-05-06 07:20 | -6.21186 | 107.01936 | 1417 ft | 190 kts | 253° |
| 2026-05-06 07:20 | -6.21583 | 107.00681 | 1399 ft | 189 kts | 253° |
| 2026-05-06 07:21 | -6.22005 | 106.99436 | 1407 ft | 189 kts | 249° |
| 2026-05-06 07:21 | -6.22505 | 106.98223 | 1407 ft | 188 kts | 246° |
| 2026-05-06 07:21 | -6.23037 | 106.97029 | 1403 ft | 189 kts | 245° |
| 2026-05-06 07:21 | -6.23571 | 106.95856 | 1245 ft | 175 kts | 246° |
| 2026-05-06 07:22 | -6.23896 | 106.95146 | 1157 ft | 158 kts | 246° |
| 2026-05-06 07:22 | -6.24338 | 106.94183 | 971 ft | 146 kts | 245° |
| 2026-05-06 07:22 | -6.24746 | 106.93291 | 801 ft | 139 kts | 249° |
| 2026-05-06 07:22 | -6.25143 | 106.92424 | 625 ft | 135 kts | 248° |
| 2026-05-06 07:23 | -6.25536 | 106.91568 | 454 ft | 134 kts | 248° |
| 2026-05-06 07:23 | -6.25923 | 106.90722 | 263 ft | 133 kts | 247° |
| 2026-05-06 07:23 | -6.26307 | 106.89886 | 104 ft | 127 kts | 246° |
| 2026-05-06 07:23 | -6.26636 | 106.89165 | 95 ft | 98 kts | 245° |
| 2026-05-06 07:24 | -6.26894 | 106.88607 | 90 ft | 84 kts | 244° |
| 2026-05-06 07:24 | -6.27281 | 106.87785 | 145 ft | 176 kts | 246° |
| 2026-05-06 07:24 | -6.27901 | 106.86556 | 908 ft | 217 kts | 242° |
| 2026-05-06 07:24 | -6.28725 | 106.85092 | 1431 ft | 269 kts | 235° |
| 2026-05-06 07:25 | -6.30126 | 106.83853 | 1419 ft | 269 kts | 206° |
| 2026-05-06 07:25 | -6.31924 | 106.83434 | 1413 ft | 267 kts | 177° |
| 2026-05-06 07:25 | -6.33681 | 106.83921 | 1396 ft | 262 kts | 147° |
| 2026-05-06 07:25 | -6.34964 | 106.85190 | 1402 ft | 259 kts | 118° |
| 2026-05-06 07:26 | -6.35453 | 106.86902 | 1404 ft | 255 kts | 89° |
| 2026-05-06 07:26 | -6.35059 | 106.88613 | 1401 ft | 248 kts | 64° |
| 2026-05-06 07:26 | -6.34301 | 106.90097 | 1395 ft | 230 kts | 60° |
| 2026-05-06 07:26 | -6.33478 | 106.91388 | 1394 ft | 206 kts | 50° |
| 2026-05-06 07:27 | -6.32602 | 106.92352 | 1416 ft | 168 kts | 46° |
| 2026-05-06 07:27 | -6.31853 | 106.93122 | 1414 ft | 143 kts | 46° |
| 2026-05-06 07:27 | -6.31180 | 106.93806 | 1411 ft | 130 kts | 45° |
| 2026-05-06 07:27 | -6.30560 | 106.94427 | 1405 ft | 122 kts | 44° |
| 2026-05-06 07:28 | -6.29776 | 106.94736 | 1241 ft | 126 kts | 2° |
| 2026-05-06 07:28 | -6.28911 | 106.94499 | 962 ft | 133 kts | 334° |
| 2026-05-06 07:28 | -6.27284 | 106.93685 | 590 ft | 125 kts | 337° |
| 2026-05-06 07:29 | -6.26525 | 106.93278 | 497 ft | 122 kts | 333° |
| 2026-05-06 07:29 | -6.25885 | 106.92730 | 427 ft | 122 kts | 315° |
| 2026-05-06 07:29 | -6.25516 | 106.91965 | 412 ft | 128 kts | 274° |
| 2026-05-06 07:29 | -6.25753 | 106.91078 | 265 ft | 134 kts | 248° |
| 2026-05-06 07:30 | -6.26149 | 106.90249 | 145 ft | 130 kts | 247° |
| 2026-05-06 07:30 | -6.26499 | 106.89470 | 91 ft | 107 kts | 246° |
| 2026-05-06 07:30 | -6.26784 | 106.88841 | 91 ft | 109 kts | 245° |
| 2026-05-06 07:30 | -6.27299 | 106.87872 | 322 ft | 190 kts | 223° |
| 2026-05-06 07:31 | -6.28583 | 106.87500 | 1040 ft | 210 kts | 163° |
| 2026-05-06 07:31 | -6.29476 | 106.88660 | 794 ft | 237 kts | 96° |
| 2026-05-06 07:31 | -6.29129 | 106.90229 | 790 ft | 236 kts | 69° |
| 2026-05-06 07:31 | -6.28500 | 106.91804 | 837 ft | 248 kts | 64° |
| 2026-05-06 07:32 | -6.27716 | 106.93374 | 918 ft | 254 kts | 61° |
| 2026-05-06 07:32 | -6.26932 | 106.94888 | 1066 ft | 243 kts | 62° |
| 2026-05-06 07:32 | -6.26125 | 106.96435 | 1040 ft | 251 kts | 62° |
| 2026-05-06 07:32 | -6.25319 | 106.97999 | 558 ft | 273 kts | 61° |
| 2026-05-06 07:33 | -6.24444 | 106.99699 | 235 ft | 264 kts | 62° |
| 2026-05-06 07:33 | -6.23663 | 107.01212 | 709 ft | 231 kts | 60° |
| 2026-05-06 07:33 | -6.23162 | 107.02616 | 1043 ft | 199 kts | 92° |
| 2026-05-06 07:33 | -6.23991 | 107.03627 | 1312 ft | 219 kts | 166° |
| 2026-05-06 07:34 | -6.25418 | 107.03038 | 1321 ft | 243 kts | 241° |
| 2026-05-06 07:34 | -6.25318 | 107.01449 | 1098 ft | 234 kts | 314° |
| 2026-05-06 07:34 | -6.23914 | 107.01051 | 1053 ft | 221 kts | 24° |
| 2026-05-06 07:34 | -6.22806 | 107.02127 | 713 ft | 219 kts | 59° |
| 2026-05-06 07:35 | -6.22060 | 107.03297 | 778 ft | 182 kts | 56° |
| 2026-05-06 07:35 | -6.21121 | 107.03765 | 978 ft | 161 kts | 349° |
| 2026-05-06 07:35 | -6.20241 | 107.02966 | 1381 ft | 172 kts | 290° |
| 2026-05-06 07:35 | -6.20414 | 107.01899 | 1529 ft | 153 kts | 226° |
| 2026-05-06 07:36 | -6.21395 | 107.01393 | 1492 ft | 178 kts | 212° |
| 2026-05-06 07:36 | -6.22030 | 107.00352 | 1432 ft | 184 kts | 265° |
| 2026-05-06 07:36 | -6.22089 | 106.99048 | 1418 ft | 186 kts | 261° |
| 2026-05-06 07:36 | -6.22596 | 106.97886 | 1401 ft | 179 kts | 242° |
| 2026-05-06 07:37 | -6.23116 | 106.96829 | 1402 ft | 156 kts | 245° |
| 2026-05-06 07:37 | -6.23557 | 106.95878 | 1264 ft | 144 kts | 247° |
| 2026-05-06 07:37 | -6.23964 | 106.94992 | 1121 ft | 138 kts | 245° |
| 2026-05-06 07:37 | -6.24364 | 106.94123 | 958 ft | 136 kts | 246° |
| 2026-05-06 07:38 | -6.24759 | 106.93261 | 795 ft | 136 kts | 248° |
| 2026-05-06 07:38 | -6.25151 | 106.92407 | 631 ft | 134 kts | 249° |
| 2026-05-06 07:38 | -6.25540 | 106.91558 | 450 ft | 133 kts | 248° |
| 2026-05-06 07:38 | -6.25924 | 106.90716 | 253 ft | 132 kts | 247° |
| 2026-05-06 07:39 | -6.26308 | 106.89884 | 100 ft | 129 kts | 248° |
| 2026-05-06 07:39 | -6.26635 | 106.89166 | 93 ft | 98 kts | 245° |
| 2026-05-06 07:39 | -6.26958 | 106.88471 | 88 ft | 151 kts | 244° |
| 2026-05-06 07:39 | -6.27616 | 106.87375 | 654 ft | 206 kts | 224° |
| 2026-05-06 07:40 | -6.28995 | 106.87042 | 887 ft | 209 kts | 158° |
| 2026-05-06 07:40 | -6.29975 | 106.87995 | 617 ft | 195 kts | 106° |
| 2026-05-06 07:40 | -6.29930 | 106.89272 | 450 ft | 179 kts | 71° |
| 2026-05-06 07:40 | -6.29480 | 106.90371 | 560 ft | 162 kts | 63° |
| 2026-05-06 07:41 | -6.28954 | 106.91318 | 663 ft | 153 kts | 48° |
| 2026-05-06 07:41 | -6.27983 | 106.91865 | 898 ft | 175 kts | 16° |
| 2026-05-06 07:41 | -6.26861 | 106.92103 | 838 ft | 151 kts | 8° |
| 2026-05-06 07:41 | -6.25977 | 106.91750 | 726 ft | 134 kts | 318° |
| 2026-05-06 07:42 | -6.25691 | 106.90927 | 574 ft | 127 kts | 264° |
| 2026-05-06 07:42 | -6.26233 | 106.90118 | 239 ft | 150 kts | 243° |
| 2026-05-06 07:42 | -6.26680 | 106.89173 | 435 ft | 167 kts | 218° |
| 2026-05-06 07:42 | -6.27895 | 106.89340 | 851 ft | 229 kts | 127° |
| 2026-05-06 07:43 | -6.27978 | 106.91044 | 480 ft | 271 kts | 65° |
| 2026-05-06 07:43 | -6.27217 | 106.92640 | 671 ft | 239 kts | 64° |
| 2026-05-06 07:43 | -6.26538 | 106.94078 | 666 ft | 220 kts | 63° |
| 2026-05-06 07:43 | -6.25908 | 106.95389 | 808 ft | 196 kts | 53° |
| 2026-05-06 07:44 | -6.24782 | 106.95905 | 835 ft | 194 kts | 354° |
| 2026-05-06 07:44 | -6.23666 | 106.95248 | 935 ft | 177 kts | 302° |
| 2026-05-06 07:44 | -6.23780 | 106.94108 | 648 ft | 172 kts | 230° |
| 2026-05-06 07:44 | -6.24644 | 106.93384 | 521 ft | 151 kts | 219° |
| 2026-05-06 07:45 | -6.25180 | 106.92586 | 631 ft | 139 kts | 258° |
| 2026-05-06 07:45 | -6.25485 | 106.91681 | 459 ft | 136 kts | 245° |
| 2026-05-06 07:45 | -6.25884 | 106.90821 | 288 ft | 134 kts | 248° |
| 2026-05-06 07:45 | -6.26258 | 106.89994 | 107 ft | 126 kts | 248° |
| 2026-05-06 07:46 | -6.26587 | 106.89270 | 95 ft | 98 kts | 246° |
| 2026-05-06 07:46 | -6.26879 | 106.88634 | 91 ft | 134 kts | 245° |
| 2026-05-06 07:46 | -6.27399 | 106.87540 | 554 ft | 196 kts | 236° |
| 2026-05-06 07:46 | -6.28587 | 106.86663 | 1525 ft | 232 kts | 191° |
| 2026-05-06 07:47 | -6.30030 | 106.87146 | 1081 ft | 238 kts | 126° |
| 2026-05-06 07:47 | -6.30298 | 106.88680 | 836 ft | 219 kts | 70° |
| 2026-05-06 07:47 | -6.29352 | 106.89778 | 747 ft | 206 kts | 41° |
| 2026-05-06 07:47 | -6.28471 | 106.90845 | 815 ft | 193 kts | 61° |
| 2026-05-06 07:48 | -6.27809 | 106.91995 | 901 ft | 188 kts | 56° |
| 2026-05-06 07:48 | -6.27095 | 106.93100 | 987 ft | 188 kts | 60° |
| 2026-05-06 07:48 | -6.26371 | 106.94088 | 1002 ft | 175 kts | 29° |
| 2026-05-06 07:48 | -6.25266 | 106.94099 | 857 ft | 155 kts | 327° |
| 2026-05-06 07:49 | -6.24815 | 106.93188 | 858 ft | 146 kts | 274° |
| 2026-05-06 07:49 | -6.25203 | 106.92273 | 638 ft | 144 kts | 240° |
| 2026-05-06 07:49 | -6.25632 | 106.91394 | 400 ft | 137 kts | 250° |
| 2026-05-06 07:49 | -6.25998 | 106.90534 | 217 ft | 132 kts | 247° |
| 2026-05-06 07:50 | -6.26386 | 106.89711 | 97 ft | 122 kts | 247° |
| 2026-05-06 07:50 | -6.26689 | 106.89041 | 93 ft | 93 kts | 245° |
| 2026-05-06 07:50 | -6.27022 | 106.88327 | 90 ft | 159 kts | 246° |
| 2026-05-06 07:50 | -6.27592 | 106.87119 | 673 ft | 213 kts | 243° |
| 2026-05-06 07:51 | -6.28750 | 106.86261 | 1020 ft | 213 kts | 187° |
| 2026-05-06 07:51 | -6.30017 | 106.86753 | 923 ft | 199 kts | 123° |
| 2026-05-06 07:51 | -6.30260 | 106.88050 | 878 ft | 191 kts | 73° |
| 2026-05-06 07:51 | -6.29697 | 106.89239 | 813 ft | 189 kts | 60° |
| 2026-05-06 07:52 | -6.29062 | 106.90392 | 847 ft | 189 kts | 60° |
| 2026-05-06 07:52 | -6.28424 | 106.91540 | 838 ft | 189 kts | 58° |
| 2026-05-06 07:52 | -6.27839 | 106.92661 | 779 ft | 170 kts | 65° |
| 2026-05-06 07:52 | -6.27128 | 106.93387 | 680 ft | 138 kts | 10° |
| 2026-05-06 07:53 | -6.26343 | 106.92992 | 575 ft | 130 kts | 304° |
| 2026-05-06 07:53 | -6.26001 | 106.92179 | 542 ft | 129 kts | 289° |
| 2026-05-06 07:53 | -6.25872 | 106.91288 | 397 ft | 130 kts | 276° |
| 2026-05-06 07:53 | -6.26068 | 106.90405 | 201 ft | 131 kts | 246° |
| 2026-05-06 07:54 | -6.26441 | 106.89596 | 95 ft | 119 kts | 246° |
| 2026-05-06 07:54 | -6.26736 | 106.88946 | 93 ft | 88 kts | 245° |
| 2026-05-06 07:54 | -6.26980 | 106.88416 | 88 ft | 94 kts | 245° |
| 2026-05-06 07:54 | -6.27417 | 106.87478 | 263 ft | 187 kts | 242° |
| 2026-05-06 07:55 | -6.28440 | 106.86516 | 1013 ft | 217 kts | 200° |
| 2026-05-06 07:55 | -6.29838 | 106.86764 | 972 ft | 207 kts | 133° |
| 2026-05-06 07:55 | -6.30146 | 106.88058 | 759 ft | 193 kts | 70° |
| 2026-05-06 07:55 | -6.29543 | 106.89249 | 725 ft | 193 kts | 57° |
| 2026-05-06 07:56 | -6.28874 | 106.90424 | 813 ft | 194 kts | 60° |
| 2026-05-06 07:56 | -6.28237 | 106.91617 | 813 ft | 188 kts | 61° |
| 2026-05-06 07:56 | -6.27666 | 106.92711 | 718 ft | 160 kts | 56° |
| 2026-05-06 07:56 | -6.26769 | 106.93008 | 727 ft | 136 kts | 346° |
| 2026-05-06 07:57 | -6.26016 | 106.92515 | 597 ft | 131 kts | 305° |
| 2026-05-06 07:57 | -6.25805 | 106.91627 | 407 ft | 130 kts | 272° |
| 2026-05-06 07:57 | -6.25937 | 106.90729 | 257 ft | 132 kts | 251° |
| 2026-05-06 07:57 | -6.26304 | 106.89897 | 101 ft | 129 kts | 248° |
| 2026-05-06 07:58 | -6.26634 | 106.89167 | 93 ft | 99 kts | 245° |
| 2026-05-06 07:58 | -6.26901 | 106.88588 | 89 ft | 98 kts | 245° |
| 2026-05-06 07:58 | -6.27349 | 106.87637 | 253 ft | 189 kts | 245° |
| 2026-05-06 07:58 | -6.27989 | 106.86368 | 1140 ft | 210 kts | 243° |
| 2026-05-06 07:59 | -6.28671 | 106.85258 | 1398 ft | 180 kts | 216° |
| 2026-05-06 07:59 | -6.29861 | 106.85093 | 1193 ft | 182 kts | 153° |
| 2026-05-06 07:59 | -6.30554 | 106.86084 | 1196 ft | 182 kts | 91° |
| 2026-05-06 07:59 | -6.30138 | 106.87256 | 1297 ft | 182 kts | 59° |
| 2026-05-06 08:00 | -6.29494 | 106.88354 | 1322 ft | 181 kts | 63° |
| 2026-05-06 08:00 | -6.28976 | 106.89519 | 1223 ft | 182 kts | 66° |
| 2026-05-06 08:00 | -6.28664 | 106.90300 | 1218 ft | 181 kts | 68° |
| 2026-05-06 08:00 | -6.28226 | 106.91512 | 1134 ft | 184 kts | 67° |
| 2026-05-06 08:01 | -6.27585 | 106.93021 | 898 ft | 165 kts | 63° |
| 2026-05-06 08:01 | -6.27254 | 106.93678 | 806 ft | 153 kts | 60° |
| 2026-05-06 08:01 | -6.26744 | 106.94529 | 808 ft | 129 kts | 49° |
| 2026-05-06 08:01 | -6.25898 | 106.94713 | 770 ft | 131 kts | 351° |
| 2026-05-06 08:02 | -6.25164 | 106.94247 | 643 ft | 127 kts | 297° |
| 2026-05-06 08:02 | -6.25065 | 106.93361 | 696 ft | 135 kts | 269° |
| 2026-05-06 08:02 | -6.25212 | 106.92449 | 623 ft | 132 kts | 259° |
| 2026-05-06 08:02 | -6.25520 | 106.91575 | 427 ft | 133 kts | 248° |
| 2026-05-06 08:03 | -6.25912 | 106.90742 | 271 ft | 132 kts | 246° |
| 2026-05-06 08:03 | -6.26297 | 106.89907 | 107 ft | 129 kts | 247° |
| 2026-05-06 08:03 | -6.26631 | 106.89175 | 95 ft | 99 kts | 245° |
| 2026-05-06 08:03 | -6.26896 | 106.88598 | 89 ft | 100 kts | 245° |
| 2026-05-06 08:04 | -6.27351 | 106.87633 | 277 ft | 188 kts | 245° |
| 2026-05-06 08:04 | -6.27945 | 106.86380 | 1278 ft | 205 kts | 245° |
| 2026-05-06 08:04 | -6.28611 | 106.84968 | 1475 ft | 242 kts | 245° |
| 2026-05-06 08:04 | -6.29343 | 106.83415 | 1380 ft | 247 kts | 245° |
| 2026-05-06 08:05 | -6.30081 | 106.81852 | 1382 ft | 248 kts | 246° |
| 2026-05-06 08:05 | -6.30824 | 106.80284 | 1370 ft | 248 kts | 245° |
| 2026-05-06 08:05 | -6.31560 | 106.78711 | 1378 ft | 248 kts | 245° |
| 2026-05-06 08:05 | -6.32291 | 106.77139 | 1376 ft | 247 kts | 246° |
| 2026-05-06 08:06 | -6.33035 | 106.75575 | 1384 ft | 247 kts | 245° |
| 2026-05-06 08:06 | -6.33778 | 106.74017 | 1392 ft | 247 kts | 245° |
| 2026-05-06 08:06 | -6.34515 | 106.72452 | 1406 ft | 247 kts | 245° |
| 2026-05-06 08:06 | -6.35233 | 106.70917 | 1413 ft | 246 kts | 245° |
| 2026-05-06 08:07 | -6.35964 | 106.69355 | 1420 ft | 246 kts | 245° |
| 2026-05-06 08:07 | -6.36697 | 106.67803 | 1419 ft | 246 kts | 245° |
| 2026-05-06 08:07 | -6.37429 | 106.66241 | 1424 ft | 247 kts | 245° |
| 2026-05-06 08:07 | -6.38011 | 106.64631 | 1426 ft | 239 kts | 256° |
| 2026-05-06 08:08 | -6.38387 | 106.63066 | 1431 ft | 223 kts | 258° |
| 2026-05-06 08:08 | -6.38700 | 106.61565 | 1426 ft | 216 kts | 265° |
| 2026-05-06 08:08 | -6.38420 | 106.60125 | 1427 ft | 211 kts | 301° |
| 2026-05-06 08:08 | -6.37470 | 106.59016 | 1434 ft | 210 kts | 318° |
| 2026-05-06 08:09 | -6.36385 | 106.58036 | 1430 ft | 209 kts | 320° |
| 2026-05-06 08:09 | -6.35236 | 106.57160 | 1424 ft | 207 kts | 330° |
| 2026-05-06 08:09 | -6.33949 | 106.56509 | 1420 ft | 206 kts | 336° |
| 2026-05-06 08:09 | -6.32665 | 106.55925 | 1415 ft | 199 kts | 337° |
| 2026-05-06 08:10 | -6.31411 | 106.55355 | 1414 ft | 197 kts | 337° |
| 2026-05-06 08:10 | -6.30175 | 106.54793 | 1413 ft | 193 kts | 337° |
| 2026-05-06 08:10 | -6.28974 | 106.54246 | 1412 ft | 189 kts | 337° |
| 2026-05-06 08:10 | -6.27794 | 106.53708 | 1438 ft | 185 kts | 337° |
| 2026-05-06 08:11 | -6.26619 | 106.53173 | 1425 ft | 187 kts | 338° |
| 2026-05-06 08:11 | -6.25438 | 106.52637 | 1408 ft | 187 kts | 336° |
| 2026-05-06 08:11 | -6.24270 | 106.52106 | 1405 ft | 185 kts | 337° |
| 2026-05-06 08:11 | -6.23091 | 106.51581 | 1406 ft | 185 kts | 341° |
| 2026-05-06 08:12 | -6.21833 | 106.51356 | 1416 ft | 185 kts | 1° |
| 2026-05-06 08:12 | -6.20582 | 106.51587 | 1410 ft | 183 kts | 20° |
| 2026-05-06 08:12 | -6.19494 | 106.52238 | 1415 ft | 184 kts | 41° |
| 2026-05-06 08:12 | -6.18701 | 106.53246 | 1408 ft | 185 kts | 61° |
| 2026-05-06 08:13 | -6.18203 | 106.54449 | 1407 ft | 194 kts | 68° |
| 2026-05-06 08:13 | -6.17725 | 106.55656 | 1408 ft | 174 kts | 66° |
| 2026-05-06 08:13 | -6.17303 | 106.56717 | 1404 ft | 154 kts | 66° |
| 2026-05-06 08:13 | -6.16929 | 106.57658 | 1322 ft | 136 kts | 66° |
| 2026-05-06 08:14 | -6.16594 | 106.58498 | 1191 ft | 124 kts | 64° |
| 2026-05-06 08:14 | -6.16279 | 106.59288 | 1051 ft | 120 kts | 66° |
| 2026-05-06 08:14 | -6.15972 | 106.60058 | 935 ft | 118 kts | 66° |
| 2026-05-06 08:14 | -6.15666 | 106.60824 | 786 ft | 120 kts | 66° |
| 2026-05-06 08:15 | -6.15364 | 106.61581 | 644 ft | 118 kts | 64° |
| 2026-05-06 08:15 | -6.15063 | 106.62338 | 511 ft | 116 kts | 66° |
| 2026-05-06 08:15 | -6.14765 | 106.63086 | 357 ft | 116 kts | 65° |
| 2026-05-06 08:15 | -6.14466 | 106.63834 | 212 ft | 114 kts | 65° |
| 2026-05-06 08:16 | -6.14172 | 106.64573 | 69 ft | 113 kts | 67° |
| 2026-05-06 08:16 | -6.13903 | 106.65256 | 43 ft | 93 kts | 66° |
| 2026-05-06 08:16 | -6.13717 | 106.65708 | 39 ft | 45 kts | 68° |
| 2026-05-06 08:16 | -6.13621 | 106.65945 | 40 ft | 34 kts | 67° |
| 2026-05-06 08:17 | -6.13528 | 106.66156 | 41 ft | 32 kts | 56° |
| 2026-05-06 08:17 | -6.13390 | 106.66291 | 40 ft | 20 kts | 37° |
| 2026-05-06 08:17 | -6.13284 | 106.66285 | 39 ft | 6 kts | 339° |
| 2026-05-06 08:17 | -6.13283 | 106.66285 | 39 ft | 0 kts | 339° |
| 2026-05-06 08:19 | -6.13280 | 106.66284 | 39 ft | 4 kts | 339° |
| 2026-05-06 08:19 | -6.13227 | 106.66208 | 36 ft | 18 kts | 256° |
| 2026-05-06 08:19 | -6.13271 | 106.66093 | 38 ft | 18 kts | 250° |
| 2026-05-06 08:20 | -6.13319 | 106.65979 | 38 ft | 18 kts | 247° |
| 2026-05-06 08:20 | -6.13364 | 106.65863 | 38 ft | 18 kts | 248° |
| 2026-05-06 08:20 | -6.13411 | 106.65747 | 38 ft | 18 kts | 248° |
| 2026-05-06 08:20 | -6.13451 | 106.65647 | 38 ft | 11 kts | 248° |
| 2026-05-06 08:21 | -6.13474 | 106.65589 | 37 ft | 9 kts | 248° |
| 2026-05-06 08:21 | -6.13499 | 106.65525 | 36 ft | 10 kts | 248° |
| 2026-05-06 08:21 | -6.13527 | 106.65455 | 39 ft | 11 kts | 249° |
| 2026-05-06 08:21 | -6.13556 | 106.65379 | 36 ft | 12 kts | 249° |
| 2026-05-06 08:22 | -6.13598 | 106.65283 | 39 ft | 27 kts | 246° |
| 2026-05-06 08:22 | -6.13672 | 106.65086 | 39 ft | 21 kts | 245° |
| 2026-05-06 08:22 | -6.13641 | 106.65019 | 39 ft | 10 kts | 338° |
| 2026-05-06 08:22 | -6.13467 | 106.64950 | 39 ft | 38 kts | 340° |
| 2026-05-06 08:23 | -6.13226 | 106.64854 | 38 ft | 37 kts | 339° |
| 2026-05-06 08:23 | -6.12991 | 106.64759 | 53 ft | 32 kts | 337° |
| 2026-05-06 08:23 | -6.12830 | 106.64694 | 48 ft | 24 kts | 339° |
| 2026-05-06 08:23 | -6.12673 | 106.64632 | 38 ft | 25 kts | 339° |
| 2026-05-06 08:24 | -6.12519 | 106.64570 | 38 ft | 25 kts | 336° |
| 2026-05-06 08:24 | -6.12369 | 106.64512 | 38 ft | 24 kts | 340° |
| 2026-05-06 08:24 | -6.12247 | 106.64464 | 38 ft | 13 kts | 338° |
| 2026-05-06 08:24 | -6.12241 | 106.64461 | 39 ft | 0 kts | 338° |
| 2026-05-06 08:25 | -6.12187 | 106.64450 | 39 ft | 14 kts | 9° |
| 2026-05-06 08:26 | -6.12130 | 106.64538 | 37 ft | 18 kts | 68° |
| 2026-05-06 08:26 | -6.12078 | 106.64669 | 39 ft | 22 kts | 69° |
| 2026-05-06 08:26 | -6.12016 | 106.64825 | 39 ft | 26 kts | 68° |
| 2026-05-06 08:26 | -6.11949 | 106.64990 | 39 ft | 18 kts | 68° |
| 2026-05-06 08:27 | -6.11896 | 106.65121 | 36 ft | 22 kts | 69° |
| 2026-05-06 08:27 | -6.11863 | 106.65238 | 39 ft | 17 kts | 100° |
| 2026-05-06 08:27 | -6.11923 | 106.65325 | 38 ft | 14 kts | 126° |
| 2026-05-06 08:27 | -6.11983 | 106.65392 | 38 ft | 11 kts | 158° |
| 2026-05-06 08:28 | -6.12039 | 106.65401 | 38 ft | 4 kts | 173° |
| 2026-05-06 08:28 | -6.12069 | 106.65404 | 38 ft | 3 kts | 174° |
| 2026-05-06 08:28 | -6.12077 | 106.65405 | 38 ft | 0 kts | 174° |